createdAt,value
2022-08-05T00:03:26.897Z,101125.78
2022-08-05T00:08:34.681Z,101127.75
2022-08-05T00:13:39.608Z,101138.00
2022-08-05T00:18:40.100Z,101129.78
2022-08-05T00:23:46.556Z,101130.56
2022-08-05T00:28:53.034Z,101124.84
2022-08-05T00:34:54.151Z,101119.84
2022-08-05T00:39:13.887Z,101120.06
2022-08-05T00:44:13.802Z,101117.63
2022-08-05T00:49:13.981Z,101113.00
2022-08-05T00:54:13.245Z,101104.63
2022-08-05T00:59:11.355Z,101109.94
2022-08-05T01:04:11.840Z,101108.28
2022-08-05T01:09:12.592Z,101110.34
2022-08-05T01:14:27.839Z,101109.22
2022-08-05T01:19:56.650Z,101113.16
2022-08-05T01:25:02.988Z,101111.25
2022-08-05T01:30:12.482Z,101121.38
2022-08-05T01:35:51.873Z,101106.88
2022-08-05T01:40:40.910Z,101117.28
2022-08-05T01:45:43.114Z,101120.25
2022-08-05T01:50:43.484Z,101115.19
2022-08-05T01:55:52.667Z,101117.97
2022-08-05T02:00:53.376Z,101110.41
2022-08-05T02:05:53.499Z,101118.00
2022-08-05T02:11:03.489Z,101114.22
2022-08-05T02:16:07.415Z,101117.41
2022-08-05T02:21:17.546Z,101115.75
2022-08-05T02:26:22.094Z,101121.13
2022-08-05T02:31:28.311Z,101120.25
2022-08-05T02:36:31.612Z,101124.16
2022-08-05T02:41:36.382Z,101122.59
2022-08-05T02:47:00.186Z,101119.84
2022-08-05T02:52:03.710Z,101127.25
2022-08-05T02:57:03.671Z,101128.91
2022-08-05T03:02:05.983Z,101126.09
2022-08-05T03:07:04.897Z,101132.28
2022-08-05T03:12:05.526Z,101138.44
2022-08-05T03:17:08.973Z,101130.56
2022-08-05T03:22:16.760Z,101134.22
2022-08-05T03:27:17.648Z,101138.94
2022-08-05T03:32:19.518Z,101144.94
2022-08-05T03:37:17.788Z,101139.63
2022-08-05T03:42:16.102Z,101141.63
2022-08-05T03:47:14.206Z,101145.78
2022-08-05T03:52:37.258Z,101146.34
2022-08-05T03:57:44.497Z,101148.47
2022-08-05T04:02:57.845Z,101149.28
2022-08-05T04:07:59.073Z,101147.34
2022-08-05T04:12:59.027Z,101144.28
2022-08-05T04:17:57.544Z,101142.59
2022-08-05T04:22:59.612Z,101141.47
2022-08-05T04:28:00.657Z,101136.28
2022-08-05T04:33:02.110Z,101149.16
2022-08-05T04:38:06.664Z,101133.69
2022-08-05T04:43:05.629Z,101133.28
2022-08-05T04:48:18.670Z,101136.03
2022-08-05T04:53:27.789Z,101139.16
2022-08-05T04:58:31.531Z,101135.59
2022-08-05T05:03:29.635Z,101139.13
2022-08-05T05:08:42.761Z,101139.19
2022-08-05T05:13:41.035Z,101137.06
2022-08-05T05:19:02.529Z,101123.50
2022-08-05T05:24:08.947Z,101121.25
2022-08-05T05:29:10.174Z,101120.72
2022-08-05T05:34:13.014Z,101118.72
2022-08-05T05:39:15.268Z,101118.47
2022-08-05T05:44:36.381Z,101116.41
2022-08-05T05:49:35.357Z,101111.47
2022-08-05T05:54:49.670Z,101117.75
2022-08-05T05:59:49.271Z,101119.16
2022-08-05T06:04:49.301Z,101124.34
2022-08-05T06:10:01.466Z,101123.91
2022-08-05T06:15:05.493Z,101123.50
2022-08-05T06:20:07.058Z,101119.59
2022-08-05T06:25:59.207Z,101123.41
2022-08-05T06:30:36.342Z,101119.75
2022-08-05T06:36:07.208Z,101112.44
2022-08-05T06:40:54.058Z,101107.41
2022-08-05T06:46:04.112Z,101106.84
2022-08-05T06:51:09.368Z,101104.50
2022-08-05T06:56:16.270Z,101100.84
2022-08-05T07:01:32.060Z,101107.41
2022-08-05T07:06:31.944Z,101091.34
2022-08-05T07:11:32.129Z,101112.63
2022-08-05T07:17:58.749Z,101099.16
2022-08-05T07:22:08.601Z,101108.00
2022-08-05T07:27:08.920Z,101105.63
2022-08-05T07:32:08.221Z,101106.47
2022-08-05T07:37:06.340Z,101109.31
2022-08-05T07:42:14.125Z,101106.59
2022-08-05T07:47:14.864Z,101103.16
2022-08-05T07:52:13.109Z,101096.09
2022-08-05T07:57:17.553Z,101083.75
2022-08-05T08:03:14.670Z,101090.78
2022-08-05T08:08:00.006Z,101094.16
2022-08-05T08:13:00.720Z,101095.78
2022-08-05T08:18:01.987Z,101097.66
2022-08-05T08:23:03.336Z,101087.75
2022-08-05T08:28:03.075Z,101097.56
2022-08-05T08:33:04.650Z,101094.31
2022-08-05T08:38:06.835Z,101082.78
2022-08-05T08:44:54.620Z,101079.91
2022-08-05T08:49:03.384Z,101074.44
2022-08-05T08:53:46.878Z,101063.19
2022-08-05T08:58:48.027Z,101060.81
2022-08-05T09:03:55.312Z,101067.22
2022-08-05T09:08:53.894Z,101069.91
2022-08-05T09:14:09.264Z,101058.25
2022-08-05T09:19:14.712Z,101046.66
2022-08-05T09:24:13.441Z,101046.56
2022-08-05T09:29:18.914Z,101034.63
2022-08-05T09:34:17.382Z,101033.78
2022-08-05T09:39:16.604Z,101031.06
2022-08-05T09:44:34.507Z,101027.47
2022-08-05T09:49:54.560Z,101010.63
2022-08-05T09:54:58.674Z,101023.34
2022-08-05T10:00:04.770Z,101017.38
2022-08-05T10:05:15.617Z,101004.63
2022-08-05T10:10:17.772Z,101005.47
2022-08-05T10:15:26.149Z,101001.34
2022-08-05T10:20:25.062Z,100997.38
2022-08-05T10:25:23.446Z,100990.63
2022-08-05T10:32:46.881Z,100981.84
2022-08-05T10:35:44.336Z,100974.38
2022-08-05T10:40:59.875Z,100972.19
2022-08-05T10:46:06.554Z,100966.84
2022-08-05T10:51:22.520Z,100965.06
2022-08-05T10:56:25.971Z,100956.63
2022-08-05T11:01:55.644Z,100948.13
2022-08-05T11:07:08.236Z,100947.56
2022-08-05T11:12:07.029Z,100947.59
2022-08-05T11:17:58.985Z,100942.44
2022-08-05T11:23:02.200Z,100935.19
2022-08-05T11:28:40.376Z,100939.06
2022-08-05T11:33:54.009Z,100931.38
2022-08-05T11:38:54.814Z,100923.28
2022-08-05T11:44:06.692Z,100914.72
2022-08-05T11:49:10.171Z,100914.69
2022-08-05T11:54:08.372Z,100913.91
2022-08-05T11:59:16.025Z,100911.56
2022-08-05T12:04:20.907Z,100913.59
2022-08-05T12:09:38.680Z,100906.03
2022-08-05T12:14:47.228Z,100909.25
2022-08-05T12:20:16.991Z,100914.53
2022-08-05T12:25:08.334Z,100896.38
2022-08-05T12:30:15.485Z,100892.06
2022-08-05T12:35:16.889Z,100888.88
2022-08-05T12:40:26.827Z,100889.84
2022-08-05T12:45:42.542Z,100886.25
2022-08-05T12:52:11.174Z,100882.38
2022-08-05T12:56:35.008Z,100874.16
2022-08-05T13:02:02.216Z,100880.09
2022-08-05T13:06:59.189Z,100873.19
2022-08-05T13:12:05.087Z,100869.09
2022-08-05T13:17:10.865Z,100864.06
2022-08-05T13:22:12.215Z,100863.31
2022-08-05T13:27:10.948Z,100857.00
2022-08-05T13:32:09.605Z,100857.75
2022-08-05T13:37:08.353Z,100853.31
2022-08-05T13:42:14.773Z,100848.47
2022-08-05T13:47:34.568Z,100843.59
2022-08-05T13:52:31.785Z,100831.25
2022-08-05T13:57:51.375Z,100836.66
2022-08-05T14:02:50.233Z,100825.72
2022-08-05T14:07:59.845Z,100816.66
2022-08-05T14:13:07.794Z,100806.09
2022-08-05T14:18:14.979Z,100806.94
2022-08-05T14:23:23.422Z,100812.59
2022-08-05T14:28:27.006Z,100800.47
2022-08-05T14:33:25.576Z,100803.59
2022-08-05T14:38:31.935Z,100793.69
2022-08-05T14:44:00.073Z,100788.59
2022-08-05T14:48:50.459Z,100787.38
2022-08-05T14:54:26.525Z,100789.53
2022-08-05T14:59:10.478Z,100778.47
2022-08-05T15:04:11.444Z,100777.94
2022-08-05T15:09:09.923Z,100774.63
2022-08-05T15:14:10.044Z,100769.00
2022-08-05T15:19:08.186Z,100765.72
2022-08-05T15:24:21.504Z,100766.88
2022-08-05T15:29:21.811Z,100764.97
2022-08-05T15:34:32.086Z,100762.16
2022-08-05T15:40:59.539Z,100757.34
2022-08-05T15:44:51.529Z,100762.00
2022-08-05T15:49:56.770Z,100758.19
2022-08-05T15:54:56.962Z,100755.34
2022-08-05T15:59:57.722Z,100756.28
2022-08-05T16:04:56.045Z,100752.47
2022-08-05T16:09:54.350Z,100755.03
2022-08-05T16:14:52.421Z,100753.34
2022-08-05T16:20:05.217Z,100745.84
2022-08-05T16:25:10.249Z,100751.63
2022-08-05T16:30:23.092Z,100742.88
2022-08-05T16:35:28.365Z,100744.59
2022-08-05T16:40:30.471Z,100748.19
2022-08-05T16:46:03.549Z,100744.03
2022-08-05T16:50:48.191Z,100753.91
2022-08-05T16:55:47.521Z,100761.41
2022-08-05T17:00:46.909Z,100757.44
2022-08-05T17:05:53.214Z,100762.84
2022-08-05T17:10:52.494Z,100767.34
2022-08-05T17:15:55.556Z,100764.13
2022-08-05T17:21:07.545Z,100771.63
2022-08-05T17:26:05.699Z,100774.63
2022-08-05T17:31:08.151Z,100767.66
2022-08-05T17:36:33.959Z,100773.63
2022-08-05T17:42:17.691Z,100775.78
2022-08-05T17:46:44.836Z,100775.03
2022-08-05T17:51:46.133Z,100784.22
2022-08-05T17:56:48.952Z,100782.03
2022-08-05T18:01:50.537Z,100787.41
2022-08-05T18:06:50.233Z,100780.22
2022-08-05T18:11:52.378Z,100798.09
2022-08-05T18:16:52.093Z,100806.59
2022-08-05T18:22:09.702Z,100803.50
2022-08-05T18:27:18.607Z,100804.72
2022-08-05T18:32:17.311Z,100796.88
2022-08-05T18:37:34.019Z,100803.03
2022-08-05T18:42:33.152Z,100804.25
2022-08-05T18:47:31.430Z,100809.84
2022-08-05T18:52:35.597Z,100820.78
2022-08-05T18:57:50.100Z,100822.88
2022-08-05T19:02:51.791Z,100825.69
2022-08-05T19:07:52.603Z,100832.47
2022-08-05T19:12:51.126Z,100825.94
2022-08-05T19:17:59.788Z,100830.84
2022-08-05T19:23:22.574Z,100830.63
2022-08-05T19:28:27.061Z,100825.03
2022-08-05T19:33:35.491Z,100829.00
2022-08-05T19:38:36.596Z,100819.94
2022-08-05T19:44:05.375Z,100826.31
2022-08-05T19:48:52.998Z,100836.66
2022-08-05T19:54:04.634Z,100837.22
2022-08-05T19:59:51.202Z,100833.16
2022-08-05T20:04:22.571Z,100834.31
2022-08-05T20:09:23.341Z,100827.28
2022-08-05T20:14:27.001Z,100826.00
2022-08-05T20:19:25.479Z,100815.59
2022-08-05T20:24:35.922Z,100822.53
2022-08-05T20:29:34.109Z,100824.78
2022-08-05T20:34:33.535Z,100817.84
2022-08-05T20:39:36.544Z,100818.63
2022-08-05T20:44:37.948Z,100814.13
2022-08-05T20:49:39.672Z,100811.78
2022-08-05T20:54:43.573Z,100807.88
2022-08-05T21:00:20.723Z,100810.75
2022-08-05T21:05:16.196Z,100807.69
2022-08-05T21:10:14.420Z,100808.84
2022-08-05T21:15:14.020Z,100802.75
2022-08-05T21:20:13.326Z,100802.41
2022-08-05T21:25:33.475Z,100807.97
2022-08-05T21:30:33.116Z,100799.47
2022-08-05T21:35:55.956Z,100812.88
2022-08-05T21:40:49.498Z,100802.16
2022-08-05T21:45:56.533Z,100804.56
2022-08-05T21:50:55.833Z,100798.28
2022-08-05T21:56:04.371Z,100791.47
2022-08-05T22:01:06.357Z,100799.75
2022-08-05T22:06:08.876Z,100803.34
2022-08-05T22:11:08.585Z,100804.19
2022-08-05T22:16:32.172Z,100806.00
2022-08-05T22:21:28.215Z,100801.84
2022-08-05T22:26:49.702Z,100802.47
2022-08-05T22:31:55.201Z,100798.88
2022-08-05T22:36:59.514Z,100802.06
2022-08-05T22:42:09.740Z,100801.22
2022-08-05T22:47:12.472Z,100801.66
2022-08-05T22:52:32.271Z,100788.50
2022-08-05T22:57:34.206Z,100793.84
2022-08-05T23:02:40.078Z,100791.28
2022-08-05T23:07:48.472Z,100792.13
2022-08-05T23:12:51.149Z,100786.22
2022-08-05T23:18:00.485Z,100790.22
2022-08-05T23:23:05.709Z,100789.50
2022-08-05T23:28:07.860Z,100790.84
2022-08-05T23:33:07.468Z,100793.13
2022-08-05T23:38:20.806Z,100788.78
2022-08-05T23:43:24.508Z,100783.00
2022-08-05T23:48:36.647Z,100783.41
2022-08-05T23:53:46.402Z,100788.25
2022-08-05T23:58:45.158Z,100781.31
